sensor_id;sensor_type;location;lat;lon;timestamp;pressure;altitude;pressure_sealevel;temperature
70050;BMP180;57391;51.306;22.680;2023-06-04T00:00:12;100352.00;;;8.90
70050;BMP180;57391;51.306;22.680;2023-06-04T00:03:01;100356.40;;;8.90
70050;BMP180;57391;51.306;22.680;2023-06-04T00:05:30;100354.60;;;8.80
70050;BMP180;57391;51.306;22.680;2023-06-04T00:07:57;100355.80;;;8.80
70050;BMP180;57391;51.306;22.680;2023-06-04T00:10:36;100352.80;;;8.78
70050;BMP180;57391;51.306;22.680;2023-06-04T00:13:22;100349.40;;;8.70
70050;BMP180;57391;51.306;22.680;2023-06-04T00:15:51;100348.00;;;8.70
70050;BMP180;57391;51.306;22.680;2023-06-04T00:18:23;100344.60;;;8.60
70050;BMP180;57391;51.306;22.680;2023-06-04T00:20:50;100344.60;;;8.60
70050;BMP180;57391;51.306;22.680;2023-06-04T00:23:18;100342.60;;;8.60
70050;BMP180;57391;51.306;22.680;2023-06-04T00:25:51;100336.80;;;8.58
70050;BMP180;57391;51.306;22.680;2023-06-04T00:28:19;100337.80;;;8.50
70050;BMP180;57391;51.306;22.680;2023-06-04T00:30:48;100330.60;;;8.50
70050;BMP180;57391;51.306;22.680;2023-06-04T00:33:16;100331.20;;;8.50
70050;BMP180;57391;51.306;22.680;2023-06-04T00:35:43;100326.20;;;8.50
70050;BMP180;57391;51.306;22.680;2023-06-04T00:38:11;100322.00;;;8.50
70050;BMP180;57391;51.306;22.680;2023-06-04T00:40:38;100324.80;;;8.50
70050;BMP180;57391;51.306;22.680;2023-06-04T00:43:05;100324.80;;;8.50
70050;BMP180;57391;51.306;22.680;2023-06-04T00:45:36;100324.60;;;8.50
70050;BMP180;57391;51.306;22.680;2023-06-04T00:48:03;100321.40;;;8.50
70050;BMP180;57391;51.306;22.680;2023-06-04T00:50:31;100317.00;;;8.46
70050;BMP180;57391;51.306;22.680;2023-06-04T00:52:59;100313.20;;;8.40
70050;BMP180;57391;51.306;22.680;2023-06-04T00:55:26;100311.00;;;8.38
70050;BMP180;57391;51.306;22.680;2023-06-04T00:57:53;100313.20;;;8.34
70050;BMP180;57391;51.306;22.680;2023-06-04T01:00:20;100311.80;;;8.32
70050;BMP180;57391;51.306;22.680;2023-06-04T01:02:51;100307.20;;;8.32
70050;BMP180;57391;51.306;22.680;2023-06-04T01:05:36;100311.20;;;8.30
70050;BMP180;57391;51.306;22.680;2023-06-04T01:08:04;100316.20;;;8.30
70050;BMP180;57391;51.306;22.680;2023-06-04T01:10:35;100315.40;;;8.30
70050;BMP180;57391;51.306;22.680;2023-06-04T01:13:02;100311.60;;;8.30
70050;BMP180;57391;51.306;22.680;2023-06-04T01:15:29;100305.60;;;8.20
70050;BMP180;57391;51.306;22.680;2023-06-04T01:18:01;100310.60;;;8.20
70050;BMP180;57391;51.306;22.680;2023-06-04T01:20:43;100317.40;;;8.20
70050;BMP180;57391;51.306;22.680;2023-06-04T01:23:40;100317.80;;;8.20
70050;BMP180;57391;51.306;22.680;2023-06-04T01:26:13;100314.60;;;8.10
70050;BMP180;57391;51.306;22.680;2023-06-04T01:28:40;100316.00;;;8.10
70050;BMP180;57391;51.306;22.680;2023-06-04T01:31:09;100314.20;;;8.02
70050;BMP180;57391;51.306;22.680;2023-06-04T01:33:37;100313.00;;;8.00
70050;BMP180;57391;51.306;22.680;2023-06-04T01:36:04;100309.60;;;8.00
70050;BMP180;57391;51.306;22.680;2023-06-04T01:38:31;100305.00;;;8.00
70050;BMP180;57391;51.306;22.680;2023-06-04T01:40:58;100304.60;;;7.96
70050;BMP180;57391;51.306;22.680;2023-06-04T01:43:28;100302.40;;;7.90
70050;BMP180;57391;51.306;22.680;2023-06-04T01:45:56;100301.40;;;7.84
70050;BMP180;57391;51.306;22.680;2023-06-04T01:48:23;100297.80;;;7.80
70050;BMP180;57391;51.306;22.680;2023-06-04T01:50:51;100302.00;;;7.80
70050;BMP180;57391;51.306;22.680;2023-06-04T01:53:18;100298.60;;;7.74
70050;BMP180;57391;51.306;22.680;2023-06-04T01:55:46;100302.80;;;7.70
70050;BMP180;57391;51.306;22.680;2023-06-04T01:58:16;100302.80;;;7.60
70050;BMP180;57391;51.306;22.680;2023-06-04T02:00:49;100300.00;;;7.60
70050;BMP180;57391;51.306;22.680;2023-06-04T02:03:17;100305.40;;;7.60
70050;BMP180;57391;51.306;22.680;2023-06-04T02:05:44;100302.80;;;7.58
70050;BMP180;57391;51.306;22.680;2023-06-04T02:08:15;100311.20;;;7.50
70050;BMP180;57391;51.306;22.680;2023-06-04T02:10:49;100316.40;;;7.50
70050;BMP180;57391;51.306;22.680;2023-06-04T02:13:16;100322.00;;;7.50
70050;BMP180;57391;51.306;22.680;2023-06-04T02:15:43;100320.20;;;7.50
70050;BMP180;57391;51.306;22.680;2023-06-04T02:18:20;100318.60;;;7.50
70050;BMP180;57391;51.306;22.680;2023-06-04T02:20:50;100321.80;;;7.50
70050;BMP180;57391;51.306;22.680;2023-06-04T02:23:19;100321.60;;;7.40
70050;BMP180;57391;51.306;22.680;2023-06-04T02:25:47;100319.20;;;7.38
70050;BMP180;57391;51.306;22.680;2023-06-04T02:28:15;100317.60;;;7.36
70050;BMP180;57391;51.306;22.680;2023-06-04T02:30:44;100318.00;;;7.36
70050;BMP180;57391;51.306;22.680;2023-06-04T02:33:13;100317.20;;;7.34
70050;BMP180;57391;51.306;22.680;2023-06-04T02:35:41;100318.20;;;7.40
70050;BMP180;57391;51.306;22.680;2023-06-04T02:38:08;100318.60;;;7.40
70050;BMP180;57391;51.306;22.680;2023-06-04T02:40:35;100321.40;;;7.40
70050;BMP180;57391;51.306;22.680;2023-06-04T02:43:02;100325.40;;;7.40
70050;BMP180;57391;51.306;22.680;2023-06-04T02:45:29;100327.40;;;7.40
70050;BMP180;57391;51.306;22.680;2023-06-04T02:47:57;100320.20;;;7.40
70050;BMP180;57391;51.306;22.680;2023-06-04T02:50:24;100323.20;;;7.46
70050;BMP180;57391;51.306;22.680;2023-06-04T02:52:51;100320.00;;;7.40
70050;BMP180;57391;51.306;22.680;2023-06-04T02:55:18;100324.60;;;7.40
70050;BMP180;57391;51.306;22.680;2023-06-04T02:57:45;100326.80;;;7.42
70050;BMP180;57391;51.306;22.680;2023-06-04T03:00:14;100320.40;;;7.50
70050;BMP180;57391;51.306;22.680;2023-06-04T03:02:45;100319.60;;;7.50
70050;BMP180;57391;51.306;22.680;2023-06-04T03:05:15;100315.40;;;7.60
70050;BMP180;57391;51.306;22.680;2023-06-04T03:07:46;100320.60;;;7.60
70050;BMP180;57391;51.306;22.680;2023-06-04T03:10:15;100322.40;;;7.60
70050;BMP180;57391;51.306;22.680;2023-06-04T03:12:43;100317.00;;;7.60
70050;BMP180;57391;51.306;22.680;2023-06-04T03:15:11;100321.00;;;7.60
70050;BMP180;57391;51.306;22.680;2023-06-04T03:17:38;100317.80;;;7.60
70050;BMP180;57391;51.306;22.680;2023-06-04T03:20:06;100319.20;;;7.70
70050;BMP180;57391;51.306;22.680;2023-06-04T03:22:35;100316.20;;;7.70
70050;BMP180;57391;51.306;22.680;2023-06-04T03:25:03;100315.40;;;7.80
70050;BMP180;57391;51.306;22.680;2023-06-04T03:27:32;100319.00;;;7.80
70050;BMP180;57391;51.306;22.680;2023-06-04T03:29:59;100321.40;;;7.90
70050;BMP180;57391;51.306;22.680;2023-06-04T03:32:28;100326.00;;;8.00
70050;BMP180;57391;51.306;22.680;2023-06-04T03:34:55;100333.20;;;8.10
70050;BMP180;57391;51.306;22.680;2023-06-04T03:37:23;100335.60;;;8.20
70050;BMP180;57391;51.306;22.680;2023-06-04T03:39:50;100323.00;;;8.64
70050;BMP180;57391;51.306;22.680;2023-06-04T03:42:18;100312.40;;;9.98
70050;BMP180;57391;51.306;22.680;2023-06-04T03:44:45;100315.20;;;11.40
70050;BMP180;57391;51.306;22.680;2023-06-04T03:47:14;100319.40;;;12.82
70050;BMP180;57391;51.306;22.680;2023-06-04T03:49:42;100325.80;;;14.14
70050;BMP180;57391;51.306;22.680;2023-06-04T03:52:09;100335.00;;;15.42
70050;BMP180;57391;51.306;22.680;2023-06-04T03:54:38;100334.20;;;16.72
70050;BMP180;57391;51.306;22.680;2023-06-04T03:57:05;100329.20;;;18.08
70050;BMP180;57391;51.306;22.680;2023-06-04T03:59:33;100333.00;;;19.48
70050;BMP180;57391;51.306;22.680;2023-06-04T04:02:00;100332.20;;;20.92
70050;BMP180;57391;51.306;22.680;2023-06-04T04:04:28;100336.00;;;22.28
70050;BMP180;57391;51.306;22.680;2023-06-04T04:06:55;100336.20;;;23.52
70050;BMP180;57391;51.306;22.680;2023-06-04T04:09:22;100342.60;;;24.58
70050;BMP180;57391;51.306;22.680;2023-06-04T04:11:50;100347.20;;;25.56
70050;BMP180;57391;51.306;22.680;2023-06-04T04:14:17;100344.40;;;26.38
70050;BMP180;57391;51.306;22.680;2023-06-04T04:16:45;100344.80;;;27.34
70050;BMP180;57391;51.306;22.680;2023-06-04T04:19:13;100348.40;;;28.14
70050;BMP180;57391;51.306;22.680;2023-06-04T04:21:41;100349.60;;;28.70
70050;BMP180;57391;51.306;22.680;2023-06-04T04:24:08;100353.80;;;29.16
70050;BMP180;57391;51.306;22.680;2023-06-04T04:26:36;100353.20;;;29.90
70050;BMP180;57391;51.306;22.680;2023-06-04T04:29:04;100362.20;;;30.54
70050;BMP180;57391;51.306;22.680;2023-06-04T04:31:35;100365.80;;;31.06
70050;BMP180;57391;51.306;22.680;2023-06-04T04:34:03;100365.60;;;31.20
70050;BMP180;57391;51.306;22.680;2023-06-04T04:36:35;100364.60;;;31.40
70050;BMP180;57391;51.306;22.680;2023-06-04T04:39:03;100380.60;;;30.94
70050;BMP180;57391;51.306;22.680;2023-06-04T04:41:33;100383.40;;;29.52
70050;BMP180;57391;51.306;22.680;2023-06-04T04:44:04;100383.60;;;28.08
70050;BMP180;57391;51.306;22.680;2023-06-04T04:46:32;100376.00;;;26.78
70050;BMP180;57391;51.306;22.680;2023-06-04T04:48:59;100373.20;;;25.76
70050;BMP180;57391;51.306;22.680;2023-06-04T04:51:28;100359.20;;;25.98
70050;BMP180;57391;51.306;22.680;2023-06-04T04:53:55;100359.80;;;26.68
70050;BMP180;57391;51.306;22.680;2023-06-04T04:56:23;100372.00;;;27.00
70050;BMP180;57391;51.306;22.680;2023-06-04T04:58:50;100382.40;;;26.34
70050;BMP180;57391;51.306;22.680;2023-06-04T05:01:18;100382.20;;;25.40
70050;BMP180;57391;51.306;22.680;2023-06-04T05:03:45;100384.80;;;24.40
70050;BMP180;57391;51.306;22.680;2023-06-04T05:06:14;100379.20;;;23.30
70050;BMP180;57391;51.306;22.680;2023-06-04T05:08:41;100370.20;;;22.80
70050;BMP180;57391;51.306;22.680;2023-06-04T05:11:09;100365.80;;;23.16
70050;BMP180;57391;51.306;22.680;2023-06-04T05:13:37;100364.80;;;24.14
70050;BMP180;57391;51.306;22.680;2023-06-04T05:16:04;100360.20;;;24.90
70050;BMP180;57391;51.306;22.680;2023-06-04T05:18:34;100361.40;;;25.50
70050;BMP180;57391;51.306;22.680;2023-06-04T05:21:02;100364.80;;;25.40
70050;BMP180;57391;51.306;22.680;2023-06-04T05:23:31;100376.00;;;24.70
70050;BMP180;57391;51.306;22.680;2023-06-04T05:25:59;100372.80;;;24.20
70050;BMP180;57391;51.306;22.680;2023-06-04T05:28:27;100369.40;;;23.64
70050;BMP180;57391;51.306;22.680;2023-06-04T05:30:54;100368.40;;;23.30
70050;BMP180;57391;51.306;22.680;2023-06-04T05:33:27;100364.40;;;23.30
70050;BMP180;57391;51.306;22.680;2023-06-04T05:35:58;100355.40;;;23.98
70050;BMP180;57391;51.306;22.680;2023-06-04T05:38:27;100354.20;;;25.02
70050;BMP180;57391;51.306;22.680;2023-06-04T05:40:58;100355.00;;;25.60
70050;BMP180;57391;51.306;22.680;2023-06-04T05:43:27;100353.60;;;25.80
70050;BMP180;57391;51.306;22.680;2023-06-04T05:45:55;100356.20;;;25.90
70050;BMP180;57391;51.306;22.680;2023-06-04T05:48:23;100359.80;;;26.00
70050;BMP180;57391;51.306;22.680;2023-06-04T05:50:50;100366.40;;;25.90
70050;BMP180;57391;51.306;22.680;2023-06-04T05:53:17;100369.60;;;25.22
70050;BMP180;57391;51.306;22.680;2023-06-04T05:55:46;100371.40;;;24.18
70050;BMP180;57391;51.306;22.680;2023-06-04T05:58:13;100365.80;;;23.20
70050;BMP180;57391;51.306;22.680;2023-06-04T06:00:41;100369.00;;;22.58
70050;BMP180;57391;51.306;22.680;2023-06-04T06:03:10;100361.60;;;21.84
70050;BMP180;57391;51.306;22.680;2023-06-04T06:05:40;100361.00;;;21.64
70050;BMP180;57391;51.306;22.680;2023-06-04T06:08:08;100359.60;;;22.06
70050;BMP180;57391;51.306;22.680;2023-06-04T06:10:36;100364.40;;;22.72
70050;BMP180;57391;51.306;22.680;2023-06-04T06:13:03;100367.80;;;23.34
70050;BMP180;57391;51.306;22.680;2023-06-04T06:15:30;100366.60;;;23.76
70050;BMP180;57391;51.306;22.680;2023-06-04T06:17:58;100371.40;;;24.16
70050;BMP180;57391;51.306;22.680;2023-06-04T06:20:26;100364.80;;;24.42
70050;BMP180;57391;51.306;22.680;2023-06-04T06:22:53;100365.80;;;24.66
70050;BMP180;57391;51.306;22.680;2023-06-04T06:25:22;100364.60;;;25.16
70050;BMP180;57391;51.306;22.680;2023-06-04T06:28:09;100371.80;;;25.52
70050;BMP180;57391;51.306;22.680;2023-06-04T06:30:38;100373.00;;;25.80
70050;BMP180;57391;51.306;22.680;2023-06-04T06:33:05;100376.40;;;25.60
70050;BMP180;57391;51.306;22.680;2023-06-04T06:35:33;100379.80;;;25.30
70050;BMP180;57391;51.306;22.680;2023-06-04T06:38:00;100379.60;;;24.92
70050;BMP180;57391;51.306;22.680;2023-06-04T06:40:27;100380.40;;;24.28
70050;BMP180;57391;51.306;22.680;2023-06-04T06:42:57;100377.20;;;23.94
70050;BMP180;57391;51.306;22.680;2023-06-04T06:45:24;100377.00;;;23.50
70050;BMP180;57391;51.306;22.680;2023-06-04T06:47:51;100375.80;;;23.10
70050;BMP180;57391;51.306;22.680;2023-06-04T06:50:19;100375.80;;;23.04
70050;BMP180;57391;51.306;22.680;2023-06-04T06:52:46;100372.20;;;23.30
70050;BMP180;57391;51.306;22.680;2023-06-04T06:55:14;100376.80;;;23.62
70050;BMP180;57391;51.306;22.680;2023-06-04T06:57:40;100377.40;;;23.70
70050;BMP180;57391;51.306;22.680;2023-06-04T07:00:09;100375.00;;;23.80
70050;BMP180;57391;51.306;22.680;2023-06-04T07:02:36;100379.80;;;24.06
70050;BMP180;57391;51.306;22.680;2023-06-04T07:05:04;100377.60;;;24.36
70050;BMP180;57391;51.306;22.680;2023-06-04T07:07:31;100377.20;;;24.68
70050;BMP180;57391;51.306;22.680;2023-06-04T07:09:58;100374.80;;;24.86
70050;BMP180;57391;51.306;22.680;2023-06-04T07:12:25;100372.60;;;25.10
70050;BMP180;57391;51.306;22.680;2023-06-04T07:14:53;100368.00;;;25.34
70050;BMP180;57391;51.306;22.680;2023-06-04T07:17:20;100374.60;;;25.60
70050;BMP180;57391;51.306;22.680;2023-06-04T07:19:47;100368.60;;;25.86
70050;BMP180;57391;51.306;22.680;2023-06-04T07:22:14;100365.40;;;25.90
70050;BMP180;57391;51.306;22.680;2023-06-04T07:24:42;100371.00;;;25.60
70050;BMP180;57391;51.306;22.680;2023-06-04T07:27:12;100369.40;;;25.50
70050;BMP180;57391;51.306;22.680;2023-06-04T07:29:40;100370.80;;;25.60
70050;BMP180;57391;51.306;22.680;2023-06-04T07:32:07;100366.80;;;25.60
70050;BMP180;57391;51.306;22.680;2023-06-04T07:34:34;100370.20;;;25.40
70050;BMP180;57391;51.306;22.680;2023-06-04T07:37:04;100373.20;;;25.10
70050;BMP180;57391;51.306;22.680;2023-06-04T07:39:32;100370.40;;;24.60
70050;BMP180;57391;51.306;22.680;2023-06-04T07:41:59;100368.00;;;24.24
70050;BMP180;57391;51.306;22.680;2023-06-04T07:44:27;100371.20;;;24.00
70050;BMP180;57391;51.306;22.680;2023-06-04T07:46:54;100367.20;;;23.70
70050;BMP180;57391;51.306;22.680;2023-06-04T07:49:21;100366.60;;;23.60
70050;BMP180;57391;51.306;22.680;2023-06-04T07:51:49;100369.60;;;23.60
70050;BMP180;57391;51.306;22.680;2023-06-04T07:54:16;100365.60;;;23.70
70050;BMP180;57391;51.306;22.680;2023-06-04T07:56:43;100368.40;;;23.90
70050;BMP180;57391;51.306;22.680;2023-06-04T07:59:10;100374.00;;;24.00
70050;BMP180;57391;51.306;22.680;2023-06-04T08:01:38;100372.60;;;24.10
70050;BMP180;57391;51.306;22.680;2023-06-04T08:04:13;100372.00;;;24.24
70050;BMP180;57391;51.306;22.680;2023-06-04T08:06:40;100364.00;;;24.30
70050;BMP180;57391;51.306;22.680;2023-06-04T08:09:08;100367.40;;;24.32
70050;BMP180;57391;51.306;22.680;2023-06-04T08:11:38;100362.20;;;24.30
70050;BMP180;57391;51.306;22.680;2023-06-04T08:14:06;100371.80;;;24.30
70050;BMP180;57391;51.306;22.680;2023-06-04T08:16:33;100371.60;;;24.38
70050;BMP180;57391;51.306;22.680;2023-06-04T08:19:01;100374.00;;;24.42
70050;BMP180;57391;51.306;22.680;2023-06-04T08:21:28;100369.00;;;24.70
70050;BMP180;57391;51.306;22.680;2023-06-04T08:23:55;100368.80;;;24.90
70050;BMP180;57391;51.306;22.680;2023-06-04T08:26:23;100374.80;;;24.60
70050;BMP180;57391;51.306;22.680;2023-06-04T08:28:50;100370.40;;;24.30
70050;BMP180;57391;51.306;22.680;2023-06-04T08:31:18;100360.60;;;24.20
70050;BMP180;57391;51.306;22.680;2023-06-04T08:33:46;100362.80;;;24.26
70050;BMP180;57391;51.306;22.680;2023-06-04T08:36:14;100364.00;;;24.40
70050;BMP180;57391;51.306;22.680;2023-06-04T08:38:44;100366.60;;;24.50
70050;BMP180;57391;51.306;22.680;2023-06-04T08:41:20;100365.00;;;24.70
70050;BMP180;57391;51.306;22.680;2023-06-04T08:43:50;100371.80;;;24.70
70050;BMP180;57391;51.306;22.680;2023-06-04T08:46:19;100372.20;;;24.38
70050;BMP180;57391;51.306;22.680;2023-06-04T08:48:49;100367.00;;;24.10
70050;BMP180;57391;51.306;22.680;2023-06-04T08:51:18;100370.80;;;24.20
70050;BMP180;57391;51.306;22.680;2023-06-04T08:53:46;100367.40;;;24.12
70050;BMP180;57391;51.306;22.680;2023-06-04T08:56:16;100362.80;;;24.12
70050;BMP180;57391;51.306;22.680;2023-06-04T08:58:44;100367.80;;;24.28
70050;BMP180;57391;51.306;22.680;2023-06-04T09:01:17;100368.80;;;24.30
70050;BMP180;57391;51.306;22.680;2023-06-04T09:03:48;100370.60;;;24.10
70050;BMP180;57391;51.306;22.680;2023-06-04T09:06:15;100363.80;;;24.00
70050;BMP180;57391;51.306;22.680;2023-06-04T09:08:44;100365.80;;;24.10
70050;BMP180;57391;51.306;22.680;2023-06-04T09:11:15;100359.40;;;24.00
70050;BMP180;57391;51.306;22.680;2023-06-04T09:13:46;100369.80;;;23.98
70050;BMP180;57391;51.306;22.680;2023-06-04T09:16:14;100370.00;;;23.70
70050;BMP180;57391;51.306;22.680;2023-06-04T09:18:41;100368.60;;;23.58
70050;BMP180;57391;51.306;22.680;2023-06-04T09:21:09;100364.80;;;23.40
70050;BMP180;57391;51.306;22.680;2023-06-04T09:23:44;100364.20;;;23.30
70050;BMP180;57391;51.306;22.680;2023-06-04T09:26:12;100362.00;;;23.30
70050;BMP180;57391;51.306;22.680;2023-06-04T09:28:42;100363.60;;;23.34
70050;BMP180;57391;51.306;22.680;2023-06-04T09:31:18;100355.60;;;23.30
70050;BMP180;57391;51.306;22.680;2023-06-04T09:33:55;100352.80;;;23.50
70050;BMP180;57391;51.306;22.680;2023-06-04T09:36:31;100357.40;;;23.70
70050;BMP180;57391;51.306;22.680;2023-06-04T09:39:20;100356.60;;;23.86
70050;BMP180;57391;51.306;22.680;2023-06-04T09:42:18;100356.00;;;23.84
70050;BMP180;57391;51.306;22.680;2023-06-04T09:44:48;100355.80;;;23.60
70050;BMP180;57391;51.306;22.680;2023-06-04T09:47:43;100352.20;;;23.50
70050;BMP180;57391;51.306;22.680;2023-06-04T09:50:32;100354.00;;;23.48
70050;BMP180;57391;51.306;22.680;2023-06-04T09:53:19;100356.00;;;23.30
70050;BMP180;57391;51.306;22.680;2023-06-04T09:56:02;100358.40;;;23.16
70050;BMP180;57391;51.306;22.680;2023-06-04T09:58:35;100351.40;;;23.00
70050;BMP180;57391;51.306;22.680;2023-06-04T10:01:05;100350.00;;;22.90
70050;BMP180;57391;51.306;22.680;2023-06-04T10:03:35;100354.40;;;22.90
70050;BMP180;57391;51.306;22.680;2023-06-04T10:06:08;100355.40;;;22.90
70050;BMP180;57391;51.306;22.680;2023-06-04T10:08:42;100350.40;;;22.76
70050;BMP180;57391;51.306;22.680;2023-06-04T10:11:12;100345.40;;;22.80
70050;BMP180;57391;51.306;22.680;2023-06-04T10:14:00;100344.60;;;22.80
70050;BMP180;57391;51.306;22.680;2023-06-04T10:16:30;100348.20;;;22.88
70050;BMP180;57391;51.306;22.680;2023-06-04T10:19:01;100341.60;;;22.70
70050;BMP180;57391;51.306;22.680;2023-06-04T10:21:32;100341.00;;;22.70
70050;BMP180;57391;51.306;22.680;2023-06-04T10:24:01;100342.00;;;22.70
70050;BMP180;57391;51.306;22.680;2023-06-04T10:26:29;100340.20;;;22.50
70050;BMP180;57391;51.306;22.680;2023-06-04T10:29:01;100341.60;;;22.60
70050;BMP180;57391;51.306;22.680;2023-06-04T10:31:32;100340.40;;;22.60
70050;BMP180;57391;51.306;22.680;2023-06-04T10:34:00;100342.40;;;22.60
70050;BMP180;57391;51.306;22.680;2023-06-04T10:36:27;100337.00;;;22.70
70050;BMP180;57391;51.306;22.680;2023-06-04T10:38:55;100328.60;;;22.90
70050;BMP180;57391;51.306;22.680;2023-06-04T10:41:24;100326.00;;;23.10
70050;BMP180;57391;51.306;22.680;2023-06-04T10:44:01;100328.60;;;23.20
70050;BMP180;57391;51.306;22.680;2023-06-04T10:46:41;100326.00;;;23.26
70050;BMP180;57391;51.306;22.680;2023-06-04T10:49:11;100319.60;;;23.30
70050;BMP180;57391;51.306;22.680;2023-06-04T10:51:41;100315.20;;;23.40
70050;BMP180;57391;51.306;22.680;2023-06-04T10:54:22;100317.00;;;23.50
70050;BMP180;57391;51.306;22.680;2023-06-04T10:56:50;100319.20;;;23.50
70050;BMP180;57391;51.306;22.680;2023-06-04T10:59:18;100311.80;;;23.50
70050;BMP180;57391;51.306;22.680;2023-06-04T11:01:46;100312.60;;;23.50
70050;BMP180;57391;51.306;22.680;2023-06-04T11:04:25;100315.80;;;23.50
70050;BMP180;57391;51.306;22.680;2023-06-04T11:07:07;100318.60;;;23.30
70050;BMP180;57391;51.306;22.680;2023-06-04T11:09:48;100318.20;;;23.20
70050;BMP180;57391;51.306;22.680;2023-06-04T11:12:16;100314.40;;;22.90
70050;BMP180;57391;51.306;22.680;2023-06-04T11:14:57;100319.40;;;22.78
70050;BMP180;57391;51.306;22.680;2023-06-04T11:17:25;100315.60;;;22.50
70050;BMP180;57391;51.306;22.680;2023-06-04T11:19:53;100316.60;;;22.40
70050;BMP180;57391;51.306;22.680;2023-06-04T11:22:23;100313.40;;;22.40
70050;BMP180;57391;51.306;22.680;2023-06-04T11:24:57;100311.40;;;22.42
70050;BMP180;57391;51.306;22.680;2023-06-04T11:27:26;100306.80;;;22.70
70050;BMP180;57391;51.306;22.680;2023-06-04T11:29:58;100303.60;;;23.02
70050;BMP180;57391;51.306;22.680;2023-06-04T11:32:25;100303.60;;;23.30
70050;BMP180;57391;51.306;22.680;2023-06-04T11:35:09;100300.20;;;23.52
70050;BMP180;57391;51.306;22.680;2023-06-04T11:37:57;100314.60;;;23.80
70050;BMP180;57391;51.306;22.680;2023-06-04T11:40:25;100310.20;;;23.80
70050;BMP180;57391;51.306;22.680;2023-06-04T11:42:54;100309.60;;;23.70
70050;BMP180;57391;51.306;22.680;2023-06-04T11:45:23;100308.40;;;23.60
70050;BMP180;57391;51.306;22.680;2023-06-04T11:47:57;100313.40;;;23.50
70050;BMP180;57391;51.306;22.680;2023-06-04T11:50:32;100306.40;;;23.40
70050;BMP180;57391;51.306;22.680;2023-06-04T11:53:00;100305.60;;;23.42
70050;BMP180;57391;51.306;22.680;2023-06-04T11:55:27;100302.40;;;23.50
70050;BMP180;57391;51.306;22.680;2023-06-04T11:57:55;100301.80;;;23.50
70050;BMP180;57391;51.306;22.680;2023-06-04T12:00:23;100304.00;;;23.30
70050;BMP180;57391;51.306;22.680;2023-06-04T12:02:55;100303.20;;;23.20
70050;BMP180;57391;51.306;22.680;2023-06-04T12:05:52;100299.60;;;23.10
70050;BMP180;57391;51.306;22.680;2023-06-04T12:08:22;100305.00;;;23.10
70050;BMP180;57391;51.306;22.680;2023-06-04T12:10:52;100303.60;;;23.18
70050;BMP180;57391;51.306;22.680;2023-06-04T12:13:24;100300.40;;;23.20
70050;BMP180;57391;51.306;22.680;2023-06-04T12:16:01;100296.60;;;23.10
70050;BMP180;57391;51.306;22.680;2023-06-04T12:18:31;100301.80;;;23.20
70050;BMP180;57391;51.306;22.680;2023-06-04T12:21:24;100302.60;;;23.20
70050;BMP180;57391;51.306;22.680;2023-06-04T12:24:12;100301.40;;;23.16
70050;BMP180;57391;51.306;22.680;2023-06-04T12:26:42;100296.20;;;23.22
70050;BMP180;57391;51.306;22.680;2023-06-04T12:29:13;100300.60;;;23.40
70050;BMP180;57391;51.306;22.680;2023-06-04T12:31:45;100301.40;;;23.38
70050;BMP180;57391;51.306;22.680;2023-06-04T12:34:16;100298.80;;;23.30
70050;BMP180;57391;51.306;22.680;2023-06-04T12:36:44;100300.20;;;23.30
70050;BMP180;57391;51.306;22.680;2023-06-04T12:39:12;100294.40;;;23.30
70050;BMP180;57391;51.306;22.680;2023-06-04T12:41:45;100292.60;;;23.40
70050;BMP180;57391;51.306;22.680;2023-06-04T12:44:13;100292.40;;;23.50
70050;BMP180;57391;51.306;22.680;2023-06-04T12:46:40;100295.80;;;23.60
70050;BMP180;57391;51.306;22.680;2023-06-04T12:49:07;100294.60;;;23.60
70050;BMP180;57391;51.306;22.680;2023-06-04T12:51:35;100291.00;;;23.70
70050;BMP180;57391;51.306;22.680;2023-06-04T12:54:04;100291.40;;;23.80
70050;BMP180;57391;51.306;22.680;2023-06-04T12:56:31;100293.80;;;23.80
70050;BMP180;57391;51.306;22.680;2023-06-04T12:58:59;100287.80;;;23.70
70050;BMP180;57391;51.306;22.680;2023-06-04T13:01:26;100289.40;;;23.70
70050;BMP180;57391;51.306;22.680;2023-06-04T13:03:53;100289.00;;;23.70
70050;BMP180;57391;51.306;22.680;2023-06-04T13:06:22;100294.40;;;23.60
70050;BMP180;57391;51.306;22.680;2023-06-04T13:08:49;100291.40;;;23.60
70050;BMP180;57391;51.306;22.680;2023-06-04T13:11:16;100295.40;;;23.50
70050;BMP180;57391;51.306;22.680;2023-06-04T13:13:44;100289.00;;;23.50
70050;BMP180;57391;51.306;22.680;2023-06-04T13:16:11;100288.20;;;23.50
70050;BMP180;57391;51.306;22.680;2023-06-04T13:18:38;100289.60;;;23.46
70050;BMP180;57391;51.306;22.680;2023-06-04T13:21:18;100282.60;;;23.50
70050;BMP180;57391;51.306;22.680;2023-06-04T13:23:45;100288.40;;;23.60
70050;BMP180;57391;51.306;22.680;2023-06-04T13:26:13;100290.20;;;23.70
70050;BMP180;57391;51.306;22.680;2023-06-04T13:28:41;100291.00;;;23.70
70050;BMP180;57391;51.306;22.680;2023-06-04T13:31:08;100288.60;;;23.70
70050;BMP180;57391;51.306;22.680;2023-06-04T13:33:37;100285.20;;;23.66
70050;BMP180;57391;51.306;22.680;2023-06-04T13:36:05;100287.00;;;23.70
70050;BMP180;57391;51.306;22.680;2023-06-04T13:38:36;100284.00;;;23.80
70050;BMP180;57391;51.306;22.680;2023-06-04T13:41:04;100284.80;;;23.80
70050;BMP180;57391;51.306;22.680;2023-06-04T13:43:34;100280.80;;;23.86
70050;BMP180;57391;51.306;22.680;2023-06-04T13:46:01;100277.60;;;23.80
70050;BMP180;57391;51.306;22.680;2023-06-04T13:48:29;100282.60;;;23.90
70050;BMP180;57391;51.306;22.680;2023-06-04T13:50:57;100280.40;;;23.90
70050;BMP180;57391;51.306;22.680;2023-06-04T13:53:24;100279.80;;;23.82
70050;BMP180;57391;51.306;22.680;2023-06-04T13:55:51;100280.60;;;23.80
70050;BMP180;57391;51.306;22.680;2023-06-04T13:58:25;100275.60;;;23.80
70050;BMP180;57391;51.306;22.680;2023-06-04T14:00:53;100279.00;;;23.80